createdAt,value
2018-06-25T00:37:43.700Z,50.96
2018-06-25T00:40:12.605Z,50.44
2018-06-25T00:42:41.466Z,51.29
2018-06-25T00:45:10.334Z,50.73
2018-06-25T00:47:39.272Z,51.73
2018-06-25T00:50:08.194Z,50.94
2018-06-25T00:52:37.119Z,50.60
2018-06-25T00:55:05.982Z,51.47
2018-06-25T00:57:34.866Z,51.07
2018-06-25T01:00:04.106Z,50.38
2018-06-25T01:02:33.289Z,50.49
2018-06-25T01:05:02.178Z,50.21
2018-06-25T01:07:31.069Z,50.22
2018-06-25T01:09:59.910Z,50.62
2018-06-25T01:12:28.780Z,50.97
2018-06-25T01:14:57.767Z,50.81
2018-06-25T01:17:26.686Z,51.43
2018-06-25T01:19:55.607Z,51.12
2018-06-25T01:22:24.468Z,51.45
2018-06-25T01:24:53.338Z,51.64
2018-06-25T01:27:22.271Z,52.43
2018-06-25T01:29:51.183Z,52.32
2018-06-25T01:32:20.083Z,52.66
2018-06-25T01:34:48.981Z,52.88
2018-06-25T01:37:17.883Z,52.40
2018-06-25T01:39:46.741Z,53.42
2018-06-25T01:42:15.629Z,54.04
2018-06-25T01:44:44.484Z,53.38
2018-06-25T01:47:13.347Z,54.12
2018-06-25T01:49:42.216Z,54.13
2018-06-25T01:52:11.057Z,54.74
2018-06-25T01:54:39.966Z,54.94
2018-06-25T01:57:08.850Z,54.52
2018-06-25T01:59:37.686Z,54.84
2018-06-25T02:02:06.645Z,55.15
2018-06-25T02:04:35.517Z,55.29
2018-06-25T02:07:04.407Z,54.92
2018-06-25T02:09:33.287Z,55.76
2018-06-25T02:12:02.114Z,56.65
2018-06-25T02:14:31.036Z,56.42
2018-06-25T02:16:59.850Z,56.73
2018-06-25T02:19:28.704Z,56.84
2018-06-25T02:21:57.606Z,57.10
2018-06-25T02:24:26.494Z,56.47
2018-06-25T02:26:55.381Z,56.40
2018-06-25T02:29:24.242Z,56.75
2018-06-25T02:31:53.102Z,55.35
2018-06-25T02:34:21.990Z,54.85
2018-06-25T02:36:50.870Z,54.23
2018-06-25T02:39:19.753Z,53.93
2018-06-25T02:41:48.618Z,53.78
2018-06-25T02:44:17.498Z,53.92
2018-06-25T02:46:46.375Z,53.20
2018-06-25T02:49:15.255Z,52.75
2018-06-25T02:51:44.146Z,52.43
2018-06-25T02:54:13.064Z,52.21
2018-06-25T02:56:41.998Z,52.18
2018-06-25T02:59:10.957Z,51.47
2018-06-25T03:01:39.866Z,51.19
2018-06-25T03:04:08.759Z,51.17
2018-06-25T03:06:37.674Z,51.61
2018-06-25T03:09:08.518Z,52.68
2018-06-25T03:11:37.466Z,52.65
2018-06-25T03:14:06.530Z,51.98
2018-06-25T03:16:35.567Z,51.89
2018-06-25T03:19:04.528Z,52.40
2018-06-25T03:21:33.428Z,52.91
2018-06-25T03:24:02.333Z,52.63
2018-06-25T03:26:31.186Z,52.01
2018-06-25T03:29:00.078Z,51.37
2018-06-25T03:31:28.995Z,51.64
2018-06-25T03:33:57.861Z,51.79
2018-06-25T03:36:27.670Z,51.51
2018-06-25T03:38:56.489Z,51.31
2018-06-25T03:41:25.426Z,51.33
2018-06-25T03:43:54.272Z,51.44
2018-06-25T03:46:23.124Z,51.30
2018-06-25T03:48:52.002Z,51.30
2018-06-25T03:51:20.961Z,51.66
2018-06-25T03:53:49.877Z,51.18
2018-06-25T03:56:18.702Z,51.79
2018-06-25T03:58:47.525Z,51.63
2018-06-25T04:01:16.339Z,51.80
2018-06-25T04:03:45.317Z,52.45
2018-06-25T04:06:14.153Z,51.72
2018-06-25T04:08:43.314Z,51.81
2018-06-25T04:11:12.158Z,51.96
2018-06-25T04:13:41.040Z,51.88
2018-06-25T04:16:09.892Z,51.68
2018-06-25T04:18:38.729Z,51.53
2018-06-25T04:21:07.624Z,50.76
2018-06-25T04:23:36.479Z,50.16
2018-06-25T04:26:05.436Z,48.97
2018-06-25T04:28:34.280Z,48.41
2018-06-25T04:31:03.099Z,47.70
2018-06-25T04:33:31.960Z,46.85
2018-06-25T04:36:00.759Z,47.10
2018-06-25T04:38:29.600Z,47.50
2018-06-25T04:40:58.426Z,47.18
2018-06-25T04:43:27.250Z,46.81
2018-06-25T04:45:56.064Z,46.21
2018-06-25T04:48:24.872Z,45.84
2018-06-25T04:50:53.716Z,46.25
2018-06-25T04:53:22.610Z,45.45
2018-06-25T04:55:51.448Z,44.86
2018-06-25T04:58:20.314Z,44.99
2018-06-25T05:00:49.174Z,45.32
2018-06-25T05:03:18.019Z,45.48
2018-06-25T05:05:46.845Z,46.27
2018-06-25T05:08:15.692Z,45.92
2018-06-25T05:10:44.556Z,45.80
2018-06-25T05:13:13.396Z,44.73
2018-06-25T05:15:42.260Z,44.74
2018-06-25T05:18:11.114Z,44.28
2018-06-25T05:20:39.950Z,45.08
2018-06-25T05:23:08.781Z,45.29
2018-06-25T05:25:37.605Z,45.99
2018-06-25T05:28:06.515Z,45.96
2018-06-25T05:30:35.326Z,45.64
2018-06-25T05:33:04.131Z,45.57
2018-06-25T05:35:32.908Z,45.62
2018-06-25T05:38:01.767Z,45.32
2018-06-25T05:40:30.558Z,45.37
2018-06-25T05:42:59.370Z,45.54
2018-06-25T05:45:28.240Z,45.62
2018-06-25T05:47:57.975Z,45.21
2018-06-25T05:50:26.934Z,45.47
2018-06-25T05:52:55.842Z,45.53
2018-06-25T05:55:24.726Z,45.67
2018-06-25T05:57:53.601Z,45.80
2018-06-25T06:00:22.503Z,45.37
2018-06-25T06:02:51.459Z,45.02
2018-06-25T06:05:20.382Z,45.33
2018-06-25T06:07:49.283Z,45.17
2018-06-25T06:10:18.127Z,45.10
2018-06-25T06:12:46.998Z,45.06
2018-06-25T06:15:15.881Z,45.76
2018-06-25T06:17:44.762Z,45.39
2018-06-25T06:20:13.683Z,45.55
2018-06-25T06:22:42.539Z,45.58
2018-06-25T06:25:10.970Z,45.82
2018-06-25T06:27:39.815Z,45.90
2018-06-25T06:30:08.672Z,45.97
2018-06-25T06:32:37.583Z,45.43
2018-06-25T06:35:06.583Z,45.67
2018-06-25T06:37:35.443Z,45.30
2018-06-25T06:40:04.467Z,45.47
2018-06-25T06:42:33.370Z,45.62
2018-06-25T06:45:02.221Z,45.25
2018-06-25T06:47:31.770Z,44.70
2018-06-25T06:50:00.629Z,44.96
2018-06-25T06:52:29.516Z,44.74
2018-06-25T06:54:58.338Z,44.26
2018-06-25T06:57:27.164Z,44.07
2018-06-25T06:59:56.002Z,44.10
2018-06-25T07:02:24.884Z,43.92
2018-06-25T07:04:53.683Z,44.19
2018-06-25T07:07:22.534Z,43.93
2018-06-25T07:09:51.447Z,44.14
2018-06-25T07:12:20.272Z,43.94
2018-06-25T07:14:49.165Z,44.52
2018-06-25T07:17:18.017Z,44.24
2018-06-25T07:19:46.881Z,44.23
2018-06-25T07:22:15.765Z,44.51
2018-06-25T07:24:44.616Z,44.25
2018-06-25T07:27:13.487Z,43.98
2018-06-25T07:29:42.342Z,44.02
2018-06-25T07:32:11.194Z,43.95
2018-06-25T07:34:40.041Z,44.13
2018-06-25T07:37:08.942Z,44.64
2018-06-25T07:39:38.079Z,44.27
2018-06-25T07:42:06.990Z,44.13
2018-06-25T07:44:35.879Z,44.04
2018-06-25T07:47:04.847Z,44.28
2018-06-25T07:49:33.741Z,44.27
2018-06-25T07:52:02.628Z,44.47
2018-06-25T07:54:31.530Z,44.21
2018-06-25T07:57:00.371Z,44.59
2018-06-25T07:59:29.221Z,44.74
2018-06-25T08:01:58.196Z,44.88
2018-06-25T08:04:27.074Z,44.93
2018-06-25T08:06:56.003Z,44.77
2018-06-25T08:09:24.863Z,44.71
2018-06-25T08:11:53.784Z,44.78
2018-06-25T08:14:22.722Z,44.29
2018-06-25T08:16:51.682Z,44.70
2018-06-25T08:19:20.551Z,44.53
2018-06-25T08:21:49.410Z,45.01
2018-06-25T08:24:18.325Z,44.43
2018-06-25T08:26:47.186Z,44.98
2018-06-25T08:29:16.060Z,44.87
2018-06-25T08:31:45.474Z,44.62
2018-06-25T08:34:14.440Z,44.42
2018-06-25T08:36:43.237Z,44.34
2018-06-25T08:39:13.118Z,44.74
2018-06-25T08:41:42.359Z,44.26
2018-06-25T08:44:11.262Z,44.48
2018-06-25T08:46:40.442Z,44.85
2018-06-25T08:49:09.831Z,44.03
2018-06-25T08:51:39.089Z,44.28
2018-06-25T08:54:07.998Z,44.13
2018-06-25T08:56:36.923Z,44.17
2018-06-25T08:59:05.893Z,43.94
2018-06-25T09:01:34.836Z,43.94
2018-06-25T09:04:03.638Z,43.46
2018-06-25T09:06:32.509Z,43.57
2018-06-25T09:09:01.499Z,43.60
2018-06-25T09:11:30.346Z,43.84
2018-06-25T09:13:59.206Z,44.06
2018-06-25T09:16:28.131Z,43.25
2018-06-25T09:18:57.054Z,43.80
2018-06-25T09:21:25.923Z,43.67
2018-06-25T09:23:54.746Z,43.25
2018-06-25T09:26:24.017Z,43.51
2018-06-25T09:28:52.862Z,43.58
2018-06-25T09:31:21.677Z,43.36
2018-06-25T09:33:50.510Z,43.12
2018-06-25T09:36:19.566Z,43.46
2018-06-25T09:38:48.454Z,43.14
2018-06-25T09:41:17.414Z,43.27
2018-06-25T09:43:46.314Z,43.61
2018-06-25T09:46:15.121Z,43.70
2018-06-25T09:48:43.963Z,43.76
2018-06-25T09:51:12.795Z,43.48
2018-06-25T09:53:41.670Z,43.89
2018-06-25T09:56:10.834Z,43.85
2018-06-25T09:58:39.792Z,43.99
2018-06-25T10:01:11.627Z,43.59
2018-06-25T10:03:41.519Z,43.58
2018-06-25T10:06:10.554Z,43.47
2018-06-25T10:08:39.410Z,43.48
2018-06-25T10:11:08.282Z,43.48
2018-06-25T10:13:37.117Z,43.97
2018-06-25T10:16:06.011Z,44.25
2018-06-25T10:18:34.793Z,43.10
2018-06-25T10:21:03.629Z,43.16
2018-06-25T10:23:32.488Z,43.05
2018-06-25T10:26:01.288Z,43.06
2018-06-25T10:28:30.214Z,43.04
2018-06-25T10:30:59.390Z,42.65
2018-06-25T10:33:28.180Z,42.59
2018-06-25T10:35:57.066Z,42.08
2018-06-25T10:38:25.902Z,41.94
2018-06-25T10:40:54.786Z,42.60
2018-06-25T10:43:25.790Z,42.61
2018-06-25T10:45:55.115Z,41.87
2018-06-25T10:48:25.986Z,41.92
2018-06-25T10:50:54.894Z,42.07
2018-06-25T10:53:23.742Z,42.57
2018-06-25T10:55:52.839Z,42.33
2018-06-25T10:58:21.920Z,42.25
2018-06-25T11:00:50.956Z,41.91
2018-06-25T11:03:20.766Z,42.30
2018-06-25T11:05:51.255Z,41.79
2018-06-25T11:08:22.423Z,41.87
2018-06-25T11:10:51.837Z,41.93
2018-06-25T11:13:21.134Z,41.84
2018-06-25T11:15:50.000Z,41.60
2018-06-25T11:18:20.357Z,41.00
2018-06-25T11:20:49.481Z,41.54
2018-06-25T11:23:19.169Z,41.58
2018-06-25T11:25:48.107Z,41.48
2018-06-25T11:28:17.067Z,42.06
2018-06-25T11:30:46.087Z,41.39
2018-06-25T11:33:15.428Z,42.08
2018-06-25T11:35:44.474Z,41.42
2018-06-25T11:38:13.849Z,41.61
2018-06-25T11:40:42.667Z,41.45
2018-06-25T11:43:11.763Z,41.37
2018-06-25T11:45:41.186Z,41.41
2018-06-25T11:48:10.541Z,40.99
2018-06-25T11:50:39.509Z,40.62
2018-06-25T11:53:09.306Z,41.16
2018-06-25T11:55:38.435Z,41.09
2018-06-25T11:58:08.454Z,41.36
2018-06-25T12:00:37.580Z,41.79
2018-06-25T12:03:07.871Z,41.25
2018-06-25T12:05:36.794Z,40.35
2018-06-25T12:08:06.046Z,40.88
2018-06-25T12:10:34.961Z,41.29
2018-06-25T12:13:04.269Z,40.67
2018-06-25T12:15:33.342Z,40.74
2018-06-25T12:18:02.436Z,39.36
2018-06-25T12:20:31.503Z,40.17
2018-06-25T12:23:00.606Z,39.73
2018-06-25T12:25:29.693Z,39.31
2018-06-25T12:27:58.783Z,39.29
2018-06-25T12:30:27.860Z,39.79
2018-06-25T12:32:56.986Z,40.11
2018-06-25T12:35:26.268Z,40.39
2018-06-25T12:37:55.586Z,40.08
2018-06-25T12:40:24.585Z,39.50
2018-06-25T12:42:53.697Z,38.75
2018-06-25T12:45:23.204Z,39.60
2018-06-25T12:47:52.277Z,39.34
2018-06-25T12:50:21.344Z,39.81
2018-06-25T12:52:50.528Z,39.86
2018-06-25T12:55:19.631Z,39.62
2018-06-25T12:57:48.691Z,39.59
2018-06-25T13:00:18.147Z,39.83
2018-06-25T13:02:47.360Z,39.80
2018-06-25T13:05:16.469Z,40.14
2018-06-25T13:07:45.958Z,39.83
2018-06-25T13:10:14.998Z,39.93
2018-06-25T13:12:44.880Z,40.29
2018-06-25T13:15:14.194Z,40.32
2018-06-25T13:17:44.350Z,39.85
2018-06-25T13:20:13.280Z,39.05
2018-06-25T13:22:42.712Z,39.56
2018-06-25T13:25:11.637Z,39.59
2018-06-25T13:27:40.519Z,39.27
2018-06-25T13:30:09.355Z,39.75
2018-06-25T13:32:38.293Z,40.00
2018-06-25T13:35:07.342Z,40.16
2018-06-25T13:37:36.205Z,39.86
2018-06-25T13:40:05.389Z,39.81
2018-06-25T13:42:34.264Z,39.36
2018-06-25T13:45:03.218Z,39.72
2018-06-25T13:47:32.184Z,39.46
2018-06-25T13:50:01.044Z,39.74
2018-06-25T13:52:29.892Z,39.58
2018-06-25T13:54:58.744Z,39.71
2018-06-25T13:57:27.572Z,39.75
2018-06-25T13:59:56.382Z,40.13
2018-06-25T14:02:25.265Z,39.92
2018-06-25T14:04:54.138Z,39.82
2018-06-25T14:07:23.076Z,39.91
2018-06-25T14:09:53.037Z,39.36
2018-06-25T14:12:23.605Z,39.56
2018-06-25T14:14:56.129Z,39.76
2018-06-25T14:17:25.566Z,40.01
2018-06-25T14:19:59.883Z,39.61
2018-06-25T14:22:29.543Z,39.59
2018-06-25T14:25:00.236Z,38.97
2018-06-25T14:27:34.788Z,39.21
2018-06-25T14:30:09.451Z,39.16
2018-06-25T14:32:38.981Z,39.33
2018-06-25T14:35:17.594Z,39.13
2018-06-25T14:37:47.320Z,38.97
2018-06-25T14:40:16.536Z,38.86
2018-06-25T14:42:45.941Z,38.63
2018-06-25T14:45:14.796Z,38.74
2018-06-25T14:47:42.908Z,38.53
2018-06-25T14:51:25.572Z,39.42
2018-06-25T14:53:53.306Z,39.02
2018-06-25T14:56:21.046Z,38.56
2018-06-25T14:58:48.779Z,39.21
2018-06-25T15:01:16.529Z,38.96
2018-06-25T15:03:44.228Z,38.88
2018-06-25T15:06:11.932Z,39.38
2018-06-25T15:08:39.679Z,39.64
2018-06-25T15:11:07.425Z,39.65
2018-06-25T15:13:35.098Z,39.71
2018-06-25T15:16:02.838Z,39.39
2018-06-25T15:18:30.718Z,39.78
2018-06-25T15:22:33.370Z,40.32
2018-06-25T15:25:01.446Z,40.17
2018-06-25T15:27:29.594Z,40.18
2018-06-25T15:29:57.361Z,40.10
2018-06-25T15:32:28.636Z,40.04
2018-06-25T15:34:56.382Z,39.99
2018-06-25T15:37:24.143Z,39.64
2018-06-25T15:39:52.265Z,39.77
2018-06-25T15:42:20.041Z,39.39
2018-06-25T15:44:48.189Z,39.72
2018-06-25T15:47:16.782Z,40.08
2018-06-25T15:49:44.540Z,39.65
2018-06-25T15:52:12.323Z,39.43
2018-06-25T15:54:40.125Z,39.62
2018-06-25T15:57:07.990Z,39.25
2018-06-25T15:59:35.756Z,39.58
2018-06-25T16:02:03.565Z,39.58
2018-06-25T16:04:32.114Z,39.17
2018-06-25T16:07:00.180Z,39.59
2018-06-25T16:09:27.903Z,39.40
2018-06-25T16:11:55.679Z,39.58
2018-06-25T16:14:23.436Z,39.55
2018-06-25T16:16:52.351Z,39.07
2018-06-25T16:19:20.225Z,39.45
2018-06-25T16:21:47.959Z,39.20
2018-06-25T16:24:15.814Z,39.14
2018-06-25T16:26:43.792Z,39.18
2018-06-25T16:29:11.570Z,39.02
2018-06-25T16:31:39.475Z,39.17
2018-06-25T16:34:07.476Z,39.71
2018-06-25T16:36:35.318Z,39.47
2018-06-25T16:39:03.509Z,39.66
2018-06-25T16:41:31.304Z,39.97
2018-06-25T16:43:59.927Z,39.84
2018-06-25T16:46:27.777Z,39.79
2018-06-25T16:48:55.562Z,40.38
2018-06-25T16:51:23.322Z,39.75
2018-06-25T16:53:51.061Z,40.13
2018-06-25T16:56:18.886Z,39.86
2018-06-25T16:58:47.474Z,39.65
2018-06-25T17:01:15.510Z,39.67
2018-06-25T17:03:43.413Z,40.10
2018-06-25T17:06:11.630Z,39.85
2018-06-25T17:08:39.362Z,39.73
2018-06-25T17:11:08.095Z,40.09
2018-06-25T17:13:35.887Z,39.79
2018-06-25T17:16:03.707Z,39.96
2018-06-25T17:18:32.952Z,40.21
2018-06-25T17:21:00.793Z,40.11
2018-06-25T17:23:28.559Z,40.13
2018-06-25T17:25:56.430Z,40.25
2018-06-25T17:28:24.643Z,40.65
2018-06-25T17:30:52.384Z,40.42
2018-06-25T17:33:20.206Z,40.55
2018-06-25T17:35:48.145Z,40.26
2018-06-25T17:38:15.886Z,40.75
2018-06-25T17:40:43.667Z,40.83
2018-06-25T17:43:11.373Z,41.06
2018-06-25T17:45:39.364Z,41.06
2018-06-25T17:48:07.100Z,41.21
2018-06-25T17:50:35.175Z,40.85
2018-06-25T17:53:03.040Z,41.31
2018-06-25T17:55:30.782Z,40.80
2018-06-25T17:57:59.044Z,41.21
2018-06-25T18:00:26.894Z,41.04
2018-06-25T18:02:54.600Z,41.09
2018-06-25T18:05:22.394Z,40.71
2018-06-25T18:07:50.150Z,41.27
2018-06-25T18:10:17.905Z,41.41
2018-06-25T18:12:45.597Z,41.65
2018-06-25T18:15:13.404Z,41.65
2018-06-25T18:17:41.947Z,41.96
2018-06-25T18:20:09.667Z,41.89
2018-06-25T18:22:37.418Z,41.88
2018-06-25T18:25:05.274Z,42.13
2018-06-25T18:27:33.006Z,42.14
2018-06-25T18:30:00.734Z,42.12
2018-06-25T18:32:28.523Z,42.44
2018-06-25T18:34:56.308Z,42.27
2018-06-25T18:37:24.092Z,42.20
2018-06-25T18:39:51.968Z,42.43
2018-06-25T18:42:19.702Z,42.53
2018-06-25T18:44:47.427Z,42.92
2018-06-25T18:47:15.173Z,42.96
2018-06-25T18:49:42.972Z,42.91
2018-06-25T18:52:10.791Z,43.03
2018-06-25T18:54:38.528Z,43.09
2018-06-25T18:57:06.326Z,43.22
2018-06-25T18:59:34.074Z,43.27
2018-06-25T19:02:28.173Z,43.35
2018-06-25T19:04:55.999Z,43.48
2018-06-25T19:07:23.782Z,43.66
2018-06-25T19:09:51.564Z,43.85
2018-06-25T19:12:19.269Z,43.81
2018-06-25T19:14:47.012Z,43.54
2018-06-25T19:17:14.823Z,43.44
2018-06-25T19:19:42.624Z,43.53
2018-06-25T19:22:10.495Z,43.84
2018-06-25T19:24:38.402Z,43.85
2018-06-25T19:27:06.268Z,43.51
2018-06-25T19:29:34.058Z,43.53
2018-06-25T19:32:01.875Z,44.05
2018-06-25T19:34:29.670Z,44.30
2018-06-25T19:36:57.530Z,44.09
2018-06-25T19:39:25.307Z,44.25
2018-06-25T19:41:53.831Z,44.41
2018-06-25T19:44:21.648Z,44.12
2018-06-25T19:46:49.488Z,44.32
2018-06-25T19:49:19.187Z,44.52
2018-06-25T19:51:47.326Z,44.58
2018-06-25T19:54:15.124Z,44.74
2018-06-25T19:56:42.887Z,44.86
2018-06-25T19:59:10.686Z,45.47
2018-06-25T20:01:38.442Z,45.33
2018-06-25T20:04:06.198Z,45.59
2018-06-25T20:06:34.029Z,45.80
2018-06-25T20:09:01.811Z,45.78
2018-06-25T20:11:29.620Z,45.87
2018-06-25T20:13:57.323Z,46.24
2018-06-25T20:16:25.070Z,46.54
2018-06-25T20:18:52.853Z,46.23
2018-06-25T20:21:20.594Z,46.53
2018-06-25T20:23:55.459Z,46.09
2018-06-25T20:26:23.187Z,46.45
2018-06-25T20:28:50.953Z,46.50
2018-06-25T20:31:18.679Z,46.57
2018-06-25T20:33:46.409Z,46.81
2018-06-25T20:36:14.202Z,47.12
2018-06-25T20:38:41.870Z,47.53
2018-06-25T20:41:09.725Z,47.39
2018-06-25T20:43:37.492Z,47.31
2018-06-25T20:46:05.342Z,47.43
2018-06-25T20:48:33.121Z,47.02
2018-06-25T20:51:00.891Z,47.00
2018-06-25T20:53:28.655Z,46.80
2018-06-25T20:55:56.432Z,47.35
2018-06-25T20:58:24.347Z,47.04
2018-06-25T21:00:52.151Z,47.00
2018-06-25T21:03:19.959Z,47.20
2018-06-25T21:06:02.795Z,47.13
2018-06-25T21:08:30.533Z,47.10
2018-06-25T21:10:58.290Z,47.15
2018-06-25T21:13:26.104Z,47.27
2018-06-25T21:15:53.953Z,47.34
2018-06-25T21:18:21.744Z,46.95
2018-06-25T21:20:49.533Z,46.77
2018-06-25T21:23:17.410Z,45.45
2018-06-25T21:25:45.146Z,46.13
2018-06-25T21:28:12.881Z,45.00
2018-06-25T21:30:40.656Z,44.36
2018-06-25T21:33:08.516Z,44.64
2018-06-25T21:35:36.271Z,44.69
2018-06-25T21:38:04.053Z,44.14
2018-06-25T21:40:31.730Z,44.22
2018-06-25T21:42:59.410Z,44.35
2018-06-25T21:45:27.203Z,44.08
2018-06-25T21:47:54.965Z,44.20
2018-06-25T21:50:22.726Z,44.08
2018-06-25T21:52:50.487Z,43.99
2018-06-25T21:55:18.186Z,44.06
2018-06-25T21:57:45.914Z,43.86
2018-06-25T22:00:13.818Z,44.09
2018-06-25T22:02:41.897Z,43.98
2018-06-25T22:05:10.130Z,44.21
2018-06-25T22:07:37.830Z,44.46
2018-06-25T22:10:06.135Z,44.93
2018-06-25T22:12:33.851Z,44.51
2018-06-25T22:15:01.526Z,44.59
2018-06-25T22:17:29.305Z,44.83
2018-06-25T22:19:57.037Z,44.94
2018-06-25T22:22:24.807Z,44.94
2018-06-25T22:24:52.498Z,44.98
2018-06-25T22:27:20.222Z,45.34
2018-06-25T22:29:47.958Z,45.02
2018-06-25T22:32:15.962Z,45.18
2018-06-25T22:34:43.682Z,45.13
2018-06-25T22:37:11.443Z,44.83
2018-06-25T22:39:39.149Z,45.22
2018-06-25T22:42:06.901Z,45.08
2018-06-25T22:44:34.615Z,44.94
2018-06-25T22:47:02.322Z,45.12
2018-06-25T22:49:30.058Z,44.66
2018-06-25T22:51:57.770Z,44.73
2018-06-25T22:54:25.484Z,45.38
2018-06-25T22:56:53.162Z,45.04
2018-06-25T22:59:20.878Z,45.81
2018-06-25T23:01:48.558Z,44.74
2018-06-25T23:04:16.258Z,45.86
2018-06-25T23:06:43.982Z,45.09
2018-06-25T23:09:11.788Z,44.95
2018-06-25T23:11:39.508Z,45.67
2018-06-25T23:14:07.274Z,46.21
2018-06-25T23:16:34.957Z,45.86
2018-06-25T23:19:02.666Z,45.59
2018-06-25T23:21:30.394Z,45.79
2018-06-25T23:23:58.110Z,46.01
2018-06-25T23:26:25.787Z,46.57
2018-06-25T23:28:53.503Z,46.89
2018-06-25T23:31:21.198Z,47.12
2018-06-25T23:33:48.878Z,46.53
2018-06-25T23:36:16.577Z,47.51
2018-06-25T23:38:44.380Z,47.63
2018-06-25T23:41:12.162Z,48.22
2018-06-25T23:43:39.858Z,48.50
2018-06-25T23:46:07.583Z,47.98
2018-06-25T23:48:35.286Z,48.68
2018-06-25T23:51:03.030Z,48.60
2018-06-25T23:53:30.763Z,48.18
2018-06-25T23:55:58.495Z,48.76
2018-06-25T23:58:26.249Z,48.80
